KRDG/RDG METAR and TAF weather

Enter ICAO airport designator
Station Type Date Time Source
KRDG METAR 2019/04/19 10:54 UTC NOAA

KRDG 191054Z AUTO 18011G18KT 10SM CLR 18/15 A2973 RMK AO2 SLP070 T01830150


Station Type Date Time Source
KRDG Decoded METAR 2019/04/19 10:54 UTC NOAA

READING REGIONAL AIRPORT, PA, United States (KRDG) 40-22N 075-58W 109M
Apr 19, 2019 - 06:54 AM EDT / 2019.04.19 1054 UTC
Wind: from the S (180 degrees) at 13 MPH (11 KT) gusting to 21 MPH (18 KT):0
Visibility: 10 mile(s):0
Sky conditions: clear
Temperature: 64.9 F (18.3 C)
Dew Point: 59.0 F (15.0 C)
Relative Humidity: 81%
Pressure (altimeter): 29.73 in. Hg (1006 hPa)
ob: KRDG 191054Z AUTO 18011G18KT 10SM CLR 18/15 A2973 RMK AO2 SLP070 T01830150
cycle: 11

Station Type Date Time Source
KRDG TAF 2019/04/19 09:12 UTC NOAA

TAF
AMD KRDG 190909Z 1909/2006 19012G20KT P6SM FEW025 BKN150 WS020/21040KT
FM191100 18012KT P6SM BKN020
FM191300 19012G20KT P6SM VCSH BKN015
FM191500 19012G20KT P6SM VCSH BKN020
FM191800 19012G22KT 4SM SHRA BR OVC025
FM200500 17010KT 2SM +SHRA BR OVC010

Example: see airport list